createdAt,value
2018-12-01T00:01:55.552Z,35.90
2018-12-01T00:04:25.396Z,32.93
2018-12-01T00:06:56.231Z,33.20
2018-12-01T00:09:26.961Z,37.63
2018-12-01T00:11:56.727Z,36.10
2018-12-01T00:14:26.075Z,37.33
2018-12-01T00:16:55.535Z,40.50
2018-12-01T00:19:25.330Z,39.30
2018-12-01T00:21:54.436Z,38.27
2018-12-01T00:24:23.836Z,36.77
2018-12-01T00:26:53.238Z,38.17
2018-12-01T00:29:22.850Z,40.40
2018-12-01T00:31:52.519Z,34.20
2018-12-01T00:34:22.913Z,38.20
2018-12-01T00:36:53.978Z,37.97
2018-12-01T00:39:23.388Z,38.13
2018-12-01T00:41:53.073Z,39.00
2018-12-01T00:44:23.349Z,38.20
2018-12-01T00:46:56.203Z,39.10
2018-12-01T00:49:25.625Z,36.23
2018-12-01T00:51:55.169Z,42.90
2018-12-01T00:54:24.659Z,39.67
2018-12-01T00:56:54.199Z,38.87
2018-12-01T00:59:23.649Z,37.13
2018-12-01T01:01:53.312Z,36.17
2018-12-01T01:04:23.656Z,36.47
2018-12-01T01:06:53.380Z,37.33
2018-12-01T01:09:24.964Z,35.23
2018-12-01T01:11:54.460Z,32.27
2018-12-01T01:14:24.110Z,34.33
2018-12-01T01:16:53.719Z,35.53
2018-12-01T01:19:23.344Z,33.13
2018-12-01T01:21:52.824Z,36.57
2018-12-01T01:24:23.652Z,37.30
2018-12-01T01:26:52.998Z,36.90
2018-12-01T01:29:24.368Z,38.20
2018-12-01T01:31:53.985Z,36.30
2018-12-01T01:34:24.640Z,32.87
2018-12-01T01:36:55.165Z,36.27
2018-12-01T01:39:26.464Z,37.93
2018-12-01T01:41:56.287Z,38.03
2018-12-01T01:44:25.994Z,35.00
2018-12-01T01:46:55.479Z,33.20
2018-12-01T01:49:24.840Z,33.97
2018-12-01T01:51:56.058Z,34.97
2018-12-01T01:54:25.475Z,31.83
2018-12-01T01:56:54.855Z,33.83
2018-12-01T01:59:24.245Z,34.33
2018-12-01T02:01:53.761Z,34.63
2018-12-01T02:04:23.366Z,35.07
2018-12-01T02:06:57.514Z,33.03
2018-12-01T02:09:28.074Z,38.27
2018-12-01T02:11:57.638Z,35.43
2018-12-01T02:14:27.387Z,34.80
2018-12-01T02:16:56.847Z,37.00
2018-12-01T02:19:26.396Z,35.40
2018-12-01T02:21:55.837Z,34.07
2018-12-01T02:24:25.566Z,32.87
2018-12-01T02:26:55.944Z,34.33
2018-12-01T02:29:25.563Z,35.10
2018-12-01T02:31:55.187Z,34.33
2018-12-01T02:34:24.841Z,37.90
2018-12-01T02:36:54.354Z,32.33
2018-12-01T02:39:24.068Z,30.87
2018-12-01T02:41:54.330Z,34.40
2018-12-01T02:46:46.050Z,31.63
2018-12-01T02:49:15.598Z,35.87
2018-12-01T02:51:44.988Z,32.47
2018-12-01T02:54:14.293Z,33.50
2018-12-01T02:56:44.060Z,36.23
2018-12-01T02:59:13.615Z,33.47
2018-12-01T03:01:43.000Z,32.80
2018-12-01T03:04:12.490Z,32.20
2018-12-01T03:06:41.911Z,33.07
2018-12-01T03:09:11.681Z,38.03
2018-12-01T03:11:41.372Z,32.47
2018-12-01T03:14:11.079Z,29.77
2018-12-01T03:16:40.893Z,32.17
2018-12-01T03:19:10.493Z,31.13
2018-12-01T03:21:41.065Z,33.47
2018-12-01T03:24:15.283Z,30.60
2018-12-01T03:26:45.009Z,34.30
2018-12-01T03:29:15.840Z,34.60
2018-12-01T03:31:53.239Z,33.33
2018-12-01T03:34:22.762Z,38.03
2018-12-01T03:36:53.214Z,35.90
2018-12-01T03:39:39.982Z,34.50
2018-12-01T03:42:17.959Z,35.30
2018-12-01T03:47:39.157Z,35.23
2018-12-01T03:50:13.106Z,40.27
2018-12-01T03:52:42.809Z,37.13
2018-12-01T03:55:27.129Z,40.13
2018-12-01T03:57:56.743Z,36.47
2018-12-01T04:00:28.698Z,37.20
2018-12-01T04:02:59.209Z,38.13
2018-12-01T04:05:28.770Z,35.63
2018-12-01T04:07:59.085Z,41.80
2018-12-01T04:10:28.558Z,38.33
2018-12-01T04:12:58.060Z,41.67
2018-12-01T04:15:27.642Z,41.33
2018-12-01T04:17:57.134Z,41.30
2018-12-01T04:20:26.587Z,39.63
2018-12-01T04:22:56.115Z,41.30
2018-12-01T04:25:25.993Z,44.10
2018-12-01T04:27:56.753Z,43.90
2018-12-01T04:30:28.745Z,41.43
2018-12-01T04:32:58.346Z,44.33
2018-12-01T04:35:28.077Z,44.70
2018-12-01T04:37:57.719Z,41.87
2018-12-01T04:40:27.152Z,43.30
2018-12-01T04:42:56.737Z,41.37
2018-12-01T04:45:27.169Z,40.57
2018-12-01T04:47:58.979Z,41.87
2018-12-01T04:50:28.427Z,44.83
2018-12-01T04:53:01.285Z,43.83
2018-12-01T04:55:30.940Z,50.57
2018-12-01T04:58:00.424Z,44.43
2018-12-01T05:00:30.068Z,48.47
2018-12-01T05:02:59.885Z,47.63
2018-12-01T05:05:31.335Z,48.43
2018-12-01T05:08:01.516Z,45.83
2018-12-01T05:10:31.219Z,45.83
2018-12-01T05:13:01.743Z,48.13
2018-12-01T05:15:31.334Z,45.63
2018-12-01T05:18:04.759Z,44.57
2018-12-01T05:20:34.076Z,47.20
2018-12-01T05:23:03.482Z,46.63
2018-12-01T05:25:32.992Z,43.23
2018-12-01T05:28:09.452Z,45.47
2018-12-01T05:30:38.846Z,45.33
2018-12-01T05:33:08.252Z,44.00
2018-12-01T05:35:37.747Z,45.93
2018-12-01T05:38:07.197Z,47.07
2018-12-01T05:40:36.872Z,44.00
2018-12-01T05:43:06.947Z,41.90
2018-12-01T05:45:36.427Z,42.97
2018-12-01T05:48:06.274Z,46.13
2018-12-01T05:50:35.766Z,45.13
2018-12-01T05:53:05.239Z,43.63
2018-12-01T05:55:34.883Z,45.90
2018-12-01T05:58:04.571Z,47.43
2018-12-01T06:00:34.058Z,42.40
2018-12-01T06:03:03.478Z,41.30
2018-12-01T06:05:32.999Z,42.83
2018-12-01T06:08:02.386Z,45.80
2018-12-01T06:10:31.719Z,41.43
2018-12-01T06:13:02.232Z,49.63
2018-12-01T06:15:31.784Z,42.03
2018-12-01T06:18:01.577Z,39.97
2018-12-01T06:20:32.484Z,41.60
2018-12-01T06:23:03.788Z,41.97
2018-12-01T06:25:35.504Z,42.03
2018-12-01T06:28:05.452Z,42.00
2018-12-01T06:30:35.199Z,38.63
2018-12-01T06:33:05.662Z,39.47
2018-12-01T06:35:35.231Z,40.83
2018-12-01T06:38:04.756Z,37.00
2018-12-01T06:40:34.418Z,38.27
2018-12-01T06:43:04.548Z,40.17
2018-12-01T06:45:34.109Z,36.23
2018-12-01T06:48:03.756Z,35.17
2018-12-01T06:50:33.327Z,37.10
2018-12-01T06:53:03.649Z,32.33
2018-12-01T06:55:33.972Z,38.20
2018-12-01T06:58:03.723Z,34.30
2018-12-01T07:00:35.007Z,34.00
2018-12-01T07:03:04.747Z,36.30
2018-12-01T07:05:34.294Z,35.70
2018-12-01T07:08:04.152Z,34.13
2018-12-01T07:10:34.587Z,38.40
2018-12-01T07:13:04.974Z,39.80
2018-12-01T07:15:39.233Z,34.03
2018-12-01T07:18:25.606Z,36.83
2018-12-01T07:20:56.249Z,42.90
2018-12-01T07:23:25.833Z,39.10
2018-12-01T07:25:56.123Z,38.80
2018-12-01T07:28:25.815Z,36.27
2018-12-01T07:30:57.662Z,39.33
2018-12-01T07:33:37.366Z,38.07
2018-12-01T07:36:07.118Z,35.87
2018-12-01T07:38:37.445Z,37.93
2018-12-01T07:41:07.408Z,42.90
2018-12-01T07:43:37.321Z,37.23
2018-12-01T07:46:07.773Z,39.23
2018-12-01T07:48:37.366Z,41.83
2018-12-01T07:51:07.650Z,39.17
2018-12-01T07:53:37.138Z,40.70
2018-12-01T07:56:06.884Z,39.97
2018-12-01T07:58:36.415Z,39.77
2018-12-01T08:01:06.075Z,36.27
2018-12-01T08:03:35.794Z,35.77
2018-12-01T08:06:05.619Z,37.00
2018-12-01T08:08:35.887Z,33.17
2018-12-01T08:11:05.466Z,33.80
2018-12-01T08:13:39.026Z,34.07
2018-12-01T08:16:08.395Z,35.73
2018-12-01T08:18:37.860Z,36.67
2018-12-01T08:21:09.786Z,31.27
2018-12-01T08:23:39.401Z,31.63
2018-12-01T08:26:10.810Z,30.77
2018-12-01T08:28:40.217Z,32.57
2018-12-01T08:31:13.642Z,35.37
2018-12-01T08:33:45.066Z,35.57
2018-12-01T08:36:20.025Z,29.40
2018-12-01T08:38:49.675Z,29.83
2018-12-01T08:41:20.718Z,30.93
2018-12-01T08:43:52.392Z,28.80
2018-12-01T08:46:22.803Z,30.13
2018-12-01T08:48:53.163Z,27.13
2018-12-01T08:51:25.101Z,26.20
2018-12-01T08:53:56.634Z,27.90
2018-12-01T08:56:27.011Z,25.10
2018-12-01T08:58:58.834Z,27.43
2018-12-01T09:01:30.277Z,25.17
2018-12-01T09:04:04.337Z,26.83
2018-12-01T09:06:34.078Z,30.63
2018-12-01T09:09:04.426Z,23.80
2018-12-01T09:11:40.046Z,27.80
2018-12-01T09:14:12.529Z,28.13
2018-12-01T09:16:41.932Z,24.80
2018-12-01T09:19:11.566Z,26.23
2018-12-01T09:21:43.361Z,30.63
2018-12-01T09:24:13.142Z,24.60
2018-12-01T09:26:46.107Z,22.93
2018-12-01T09:29:16.726Z,25.07
2018-12-01T09:31:46.237Z,24.03
2018-12-01T09:34:15.690Z,21.73
2018-12-01T09:36:45.855Z,25.03
2018-12-01T09:39:15.410Z,21.90
2018-12-01T09:41:45.066Z,26.70
2018-12-01T09:44:15.889Z,22.93
2018-12-01T09:46:45.311Z,22.03
2018-12-01T09:49:14.852Z,20.23
2018-12-01T09:51:44.974Z,21.13
2018-12-01T09:54:15.290Z,21.70
2018-12-01T09:56:45.517Z,19.20
2018-12-01T09:59:16.884Z,23.60
2018-12-01T10:01:48.352Z,24.37
2018-12-01T10:04:17.995Z,20.73
2018-12-01T10:06:48.754Z,19.43
2018-12-01T10:09:19.450Z,18.87
2018-12-01T10:11:50.584Z,18.20
2018-12-01T10:14:18.882Z,18.63
2018-12-01T10:16:49.044Z,16.37
2018-12-01T10:19:18.646Z,19.43
2018-12-01T10:21:48.061Z,17.60
2018-12-01T10:24:17.950Z,18.17
2018-12-01T10:26:47.446Z,20.33
2018-12-01T10:29:17.065Z,21.77
2018-12-01T10:31:46.774Z,18.10
2018-12-01T10:34:17.754Z,19.87
2018-12-01T10:36:49.502Z,21.40
2018-12-01T10:39:19.191Z,22.23
2018-12-01T10:41:48.639Z,18.47
2018-12-01T10:44:18.068Z,16.07
2018-12-01T10:46:47.598Z,21.87
2018-12-01T10:49:17.396Z,16.63
2018-12-01T10:51:47.813Z,16.87
2018-12-01T10:54:18.245Z,16.17
2018-12-01T10:56:48.032Z,15.37
2018-12-01T10:59:17.559Z,14.23
2018-12-01T11:01:52.390Z,14.83
2018-12-01T11:04:27.041Z,16.33
2018-12-01T11:06:56.528Z,14.37
2018-12-01T11:09:26.149Z,11.23
2018-12-01T11:11:55.687Z,14.03
2018-12-01T11:14:25.245Z,13.63
2018-12-01T11:16:54.815Z,12.57
2018-12-01T11:19:24.502Z,14.77
2018-12-01T11:21:54.141Z,17.70
2018-12-01T11:24:23.652Z,17.83
2018-12-01T11:26:53.276Z,17.20
2018-12-01T11:29:22.781Z,33.33
2018-12-01T11:31:52.246Z,19.33
2018-12-01T11:34:21.792Z,13.03
2018-12-01T11:36:51.389Z,16.93
2018-12-01T11:39:20.967Z,13.87
2018-12-01T11:41:50.485Z,15.60
2018-12-01T11:44:19.977Z,14.37
2018-12-01T11:46:49.595Z,11.57
2018-12-01T11:49:19.264Z,8.70
2018-12-01T11:51:48.898Z,7.63
2018-12-01T11:54:18.588Z,12.40
2018-12-01T11:56:48.167Z,10.10
2018-12-01T11:59:17.679Z,10.60
2018-12-01T12:01:47.211Z,12.87
2018-12-01T12:04:17.056Z,9.53
2018-12-01T12:06:46.679Z,10.53
2018-12-01T12:09:16.164Z,16.53
2018-12-01T12:11:45.772Z,9.47
2018-12-01T12:14:15.606Z,11.20
2018-12-01T12:16:45.297Z,10.40
2018-12-01T12:19:14.815Z,9.23
2018-12-01T12:21:44.375Z,11.70
2018-12-01T12:24:14.111Z,11.93
2018-12-01T12:26:43.722Z,11.93
2018-12-01T12:29:13.277Z,10.17
2018-12-01T12:31:42.769Z,12.00
2018-12-01T12:34:12.179Z,10.70
2018-12-01T12:36:41.659Z,9.87
2018-12-01T12:39:11.169Z,10.60
2018-12-01T12:41:41.979Z,12.53
2018-12-01T12:44:12.359Z,10.60
2018-12-01T12:46:41.844Z,10.93
2018-12-01T12:49:11.469Z,9.43
2018-12-01T12:51:40.910Z,10.57
2018-12-01T12:54:10.283Z,10.43
2018-12-01T12:56:40.338Z,13.17
2018-12-01T12:59:09.740Z,9.97
2018-12-01T13:01:39.178Z,10.43
2018-12-01T13:04:08.800Z,9.20
2018-12-01T13:06:38.335Z,9.93
2018-12-01T13:09:10.530Z,8.63
2018-12-01T13:11:40.076Z,11.47
2018-12-01T13:14:09.500Z,14.40
2018-12-01T13:16:39.003Z,10.97
2018-12-01T13:19:08.495Z,9.87
2018-12-01T13:21:38.018Z,9.33
2018-12-01T13:24:07.518Z,13.73
2018-12-01T13:26:36.963Z,13.37
2018-12-01T13:29:07.678Z,9.93
2018-12-01T13:31:37.111Z,8.23
2018-12-01T13:34:06.598Z,17.60
2018-12-01T13:36:36.063Z,12.83
2018-12-01T13:39:08.596Z,8.30
2018-12-01T13:41:38.744Z,8.23
2018-12-01T13:44:08.318Z,16.67
2018-12-01T13:46:37.829Z,9.53
2018-12-01T13:49:07.354Z,11.10
2018-12-01T13:51:36.811Z,8.93
2018-12-01T13:54:06.392Z,10.90
2018-12-01T13:56:35.818Z,11.67
2018-12-01T13:59:05.223Z,7.50
2018-12-01T14:01:34.740Z,9.37
2018-12-01T14:04:04.142Z,49.17
2018-12-01T14:06:33.574Z,43.30
2018-12-01T14:09:03.153Z,24.63
2018-12-01T14:11:32.712Z,25.57
2018-12-01T14:14:02.231Z,16.73
2018-12-01T14:16:31.698Z,21.27
2018-12-01T14:19:01.180Z,19.53
2018-12-01T14:21:30.682Z,21.30
2018-12-01T14:24:01.441Z,11.47
2018-12-01T14:26:31.107Z,66.07
2018-12-01T14:29:01.644Z,27.43
2018-12-01T14:31:31.193Z,20.67
2018-12-01T14:34:01.927Z,14.73
2018-12-01T14:36:32.723Z,10.43
2018-12-01T14:39:02.277Z,11.20
2018-12-01T14:41:35.311Z,10.70
2018-12-01T14:44:05.717Z,8.27
2018-12-01T14:46:36.924Z,6.97
2018-12-01T14:49:08.720Z,7.57
2018-12-01T14:51:40.318Z,11.53
2018-12-01T14:54:09.770Z,10.07
2018-12-01T14:56:41.423Z,12.50
2018-12-01T14:59:11.555Z,9.83
2018-12-01T15:01:41.213Z,18.03
2018-12-01T15:04:10.770Z,14.87
2018-12-01T15:06:40.719Z,15.43
2018-12-01T15:09:10.649Z,9.43
2018-12-01T15:11:40.159Z,12.33
2018-12-01T15:14:09.638Z,10.03
2018-12-01T15:16:39.883Z,11.73
2018-12-01T15:19:09.696Z,11.67
2018-12-01T15:21:41.949Z,19.17
2018-12-01T15:24:13.455Z,17.20
2018-12-01T15:26:44.150Z,18.30
2018-12-01T15:29:13.778Z,10.43
2018-12-01T15:31:45.470Z,14.77
2018-12-01T15:34:15.000Z,18.70
2018-12-01T15:36:44.531Z,12.60
2018-12-01T15:39:14.087Z,9.67
2018-12-01T15:41:43.721Z,12.00
2018-12-01T15:44:13.148Z,16.60
2018-12-01T15:46:43.251Z,17.43
2018-12-01T15:49:12.921Z,12.57
2018-12-01T15:51:43.651Z,11.17
2018-12-01T15:54:13.271Z,16.67
2018-12-01T15:56:44.990Z,20.53
2018-12-01T15:59:19.282Z,15.30
2018-12-01T16:01:53.527Z,11.57
2018-12-01T16:04:30.175Z,10.73
2018-12-01T16:06:59.769Z,14.87
2018-12-01T16:09:32.366Z,30.43
2018-12-01T16:12:01.923Z,21.07
2018-12-01T16:14:31.676Z,12.37
2018-12-01T16:17:04.185Z,10.43
2018-12-01T16:19:33.951Z,18.80
2018-12-01T16:22:14.679Z,37.47
2018-12-01T16:24:58.814Z,70.10
2018-12-01T16:27:31.347Z,48.67
2018-12-01T16:30:05.328Z,26.80
2018-12-01T16:32:38.763Z,12.40
2018-12-01T16:35:11.848Z,13.77
2018-12-01T16:37:45.017Z,25.20
2018-12-01T16:40:21.760Z,15.03
2018-12-01T16:42:52.553Z,22.33
2018-12-01T16:45:26.914Z,41.27
2018-12-01T16:48:05.381Z,17.43
2018-12-01T16:50:34.885Z,18.93
2018-12-01T16:53:04.283Z,26.53
2018-12-01T16:55:35.416Z,17.20
2018-12-01T16:58:18.999Z,13.30
2018-12-01T17:00:53.459Z,13.23
2018-12-01T17:03:24.237Z,13.50
2018-12-01T17:06:02.096Z,17.47
2018-12-01T17:08:38.602Z,18.60
2018-12-01T17:11:12.670Z,15.60
2018-12-01T17:13:42.123Z,20.43
2018-12-01T17:16:12.720Z,26.10
2018-12-01T17:18:42.419Z,25.93
2018-12-01T17:21:11.964Z,27.03
2018-12-01T17:23:51.607Z,25.07
2018-12-01T17:26:21.995Z,21.40
2018-12-01T17:28:55.812Z,17.57
2018-12-01T17:31:25.389Z,18.10
2018-12-01T17:33:55.232Z,41.37
2018-12-01T17:36:24.726Z,54.80
2018-12-01T17:38:54.880Z,55.53
2018-12-01T17:44:43.728Z,19.80
2018-12-01T17:47:16.411Z,17.53
2018-12-01T17:49:48.895Z,18.93
2018-12-01T17:52:23.500Z,21.77
2018-12-01T17:54:53.158Z,23.80
2018-12-01T17:57:22.830Z,27.57
2018-12-01T17:59:52.525Z,29.17
2018-12-01T18:02:24.546Z,25.90
2018-12-01T18:04:54.042Z,25.83
2018-12-01T18:07:25.954Z,31.37
2018-12-01T18:09:57.634Z,24.37
2018-12-01T18:12:32.760Z,27.83
2018-12-01T18:15:06.247Z,21.07
2018-12-01T18:17:39.544Z,21.37
2018-12-01T18:20:18.174Z,25.27
2018-12-01T18:22:51.480Z,20.00
2018-12-01T18:25:22.031Z,24.97
2018-12-01T18:28:03.027Z,83.97
2018-12-01T18:30:39.764Z,91.40
2018-12-01T18:33:18.013Z,65.70
2018-12-01T18:35:48.258Z,28.47
2018-12-01T18:38:22.382Z,21.33
2018-12-01T18:40:52.145Z,21.57
2018-12-01T18:43:25.407Z,18.23
2018-12-01T18:45:57.743Z,15.03
2018-12-01T18:48:27.166Z,22.20
2018-12-01T18:50:56.776Z,19.47
2018-12-01T18:53:27.655Z,21.70
2018-12-01T18:56:06.400Z,22.60
2018-12-01T18:58:37.813Z,17.50
2018-12-01T19:01:17.117Z,16.40
2018-12-01T19:03:47.937Z,16.17
2018-12-01T19:06:28.074Z,25.10
2018-12-01T19:08:57.690Z,46.50
2018-12-01T19:11:27.386Z,27.40
2018-12-01T19:13:57.030Z,30.97
2018-12-01T19:16:26.563Z,40.83
2018-12-01T19:18:55.977Z,25.63
2018-12-01T19:21:28.990Z,20.93
2018-12-01T19:23:59.483Z,19.70
2018-12-01T19:26:31.179Z,26.47
2018-12-01T19:29:00.790Z,37.00
2018-12-01T19:31:30.320Z,34.77
2018-12-01T19:33:59.828Z,26.30
2018-12-01T19:36:29.293Z,36.93
2018-12-01T19:38:58.898Z,27.17
2018-12-01T19:41:29.655Z,23.83
2018-12-01T19:44:01.432Z,23.87
2018-12-01T19:46:32.487Z,34.43
2018-12-01T19:49:02.414Z,28.27
2018-12-01T19:51:32.394Z,37.33
2018-12-01T19:54:04.508Z,35.03
2018-12-01T19:56:40.062Z,33.40
2018-12-01T19:59:12.300Z,31.53
2018-12-01T20:01:41.832Z,27.97
2018-12-01T20:04:16.970Z,37.17
2018-12-01T20:06:59.173Z,27.70
2018-12-01T20:09:30.890Z,33.50
2018-12-01T20:12:05.479Z,26.87
2018-12-01T20:14:42.824Z,23.30
2018-12-01T20:17:16.648Z,40.47
2018-12-01T20:19:47.205Z,39.30
2018-12-01T20:22:24.613Z,43.30
2018-12-01T20:24:54.387Z,32.57
2018-12-01T20:27:24.018Z,31.27
2018-12-01T20:29:53.858Z,18.77
2018-12-01T20:32:23.459Z,22.00
2018-12-01T20:34:53.168Z,20.07
2018-12-01T20:37:22.649Z,23.90
2018-12-01T20:39:52.818Z,19.03
2018-12-01T20:42:22.464Z,15.13
2018-12-01T20:44:52.195Z,22.77
2018-12-01T20:47:22.153Z,20.93
2018-12-01T20:49:53.249Z,18.93
2018-12-01T20:52:22.996Z,28.47
2018-12-01T20:54:52.771Z,22.37
2018-12-01T20:57:31.770Z,17.33
2018-12-01T21:00:04.917Z,20.20
2018-12-01T21:02:35.598Z,20.77
2018-12-01T21:05:05.244Z,19.47
2018-12-01T21:07:35.266Z,26.23
2018-12-01T21:10:09.849Z,17.83
2018-12-01T21:12:39.495Z,18.47
2018-12-01T21:15:13.737Z,19.17
2018-12-01T21:17:44.373Z,22.83
2018-12-01T21:20:17.977Z,19.57
2018-12-01T21:22:50.399Z,21.87
2018-12-01T21:25:30.057Z,16.63
2018-12-01T21:28:01.788Z,17.13
2018-12-01T21:30:32.074Z,21.70
2018-12-01T21:33:35.231Z,18.50
2018-12-01T21:36:05.002Z,18.93
2018-12-01T21:38:35.444Z,17.13
2018-12-01T21:41:05.609Z,16.37
2018-12-01T21:43:36.074Z,17.67
2018-12-01T21:46:06.193Z,18.13
2018-12-01T21:48:36.209Z,18.00
2018-12-01T21:51:06.533Z,17.53
2018-12-01T21:53:36.223Z,19.47
2018-12-01T21:56:06.121Z,20.97
2018-12-01T21:58:35.937Z,15.13
2018-12-01T22:01:05.737Z,16.20
2018-12-01T22:03:36.813Z,16.33
2018-12-01T22:06:09.712Z,18.90
2018-12-01T22:08:40.813Z,15.10
2018-12-01T22:11:11.318Z,17.97
2018-12-01T22:13:42.379Z,19.30
2018-12-01T22:16:12.376Z,19.53
2018-12-01T22:18:43.652Z,19.30
2018-12-01T22:21:13.337Z,20.90
2018-12-01T22:23:43.980Z,19.03
2018-12-01T22:26:14.098Z,24.57
2018-12-01T22:28:44.237Z,16.17
2018-12-01T22:31:15.248Z,18.83
2018-12-01T22:33:46.841Z,14.10
2018-12-01T22:36:18.668Z,14.87
2018-12-01T22:38:49.525Z,15.60
2018-12-01T22:41:19.264Z,17.80
2018-12-01T22:43:59.139Z,18.33
2018-12-01T22:46:31.103Z,19.00
2018-12-01T22:49:00.819Z,16.47
2018-12-01T22:51:31.585Z,18.73
2018-12-01T22:54:01.296Z,21.23
2018-12-01T22:56:30.961Z,18.77
2018-12-01T22:59:00.618Z,17.07
2018-12-01T23:01:30.354Z,20.30
2018-12-01T23:04:00.743Z,18.43
2018-12-01T23:06:32.825Z,19.23
2018-12-01T23:09:03.167Z,20.57
2018-12-01T23:11:33.759Z,17.43
2018-12-01T23:14:06.784Z,17.67
2018-12-01T23:16:46.410Z,18.93
2018-12-01T23:19:29.991Z,16.83
2018-12-01T23:22:07.375Z,17.23
2018-12-01T23:24:48.856Z,16.83
2018-12-01T23:27:25.709Z,18.70
2018-12-01T23:30:02.515Z,18.20
2018-12-01T23:32:45.078Z,20.53
2018-12-01T23:35:30.259Z,20.00
2018-12-01T23:38:02.290Z,19.90
2018-12-01T23:40:35.074Z,18.93
2018-12-01T23:43:06.005Z,17.37
2018-12-01T23:45:49.543Z,18.60
2018-12-01T23:48:20.421Z,20.67
2018-12-01T23:50:53.758Z,20.27
2018-12-01T23:53:26.817Z,20.53
2018-12-01T23:56:03.371Z,24.90
2018-12-01T23:58:33.833Z,19.27
